^^
Saratoga-Weather Station Historical Data
Daily Summary for May 25, 2022 Units:  Both    English   Metric
Daily Weekly Monthly Yearly Custom
  High: Low: Average:
Temperature: 68.5 °F /  20.3 °C 46.8 °F /  8.2 °C 59.2 °F /  15.1 °C
Dew Point: 50.9 °F /  10.5 °C 44.8 °F /  7.1 °C 48 °F /  8.9 °C
Humidity: 95% 47% 69%
Wind Speed: 10.1mph /  16.3km/h - 2.7mph /  4.3km/h
Wind Gust: 15mph /  24.1km/h - -
Wind- - West
Pressure: 30.1 in /  1019.3 hPa 29.9 in /  1012.2 hPa -
Precipitation: 0 in /  0.0 mm    
Historical Graphs
 
 
Tabular Data for May 25, 2022
Time Temperature Dew Point Pressure Wind Wind Speed Wind Gust Humidity Rainfall Rate (Hourly) solar
00:04 54.5 °F /  12.5 °C 49.1 °F /  9.5 °C 29.9in /  1012.2hPa Calm   1mph /  1.6km/h 82% 0in /  0.0mm 0 W/m2
00:09 54.1 °F /  12.3 °C 48.7 °F /  9.3 °C 29.9in /  1012.5hPa Calm   2mph /  3.2km/h 82% 0in /  0.0mm 0 W/m2
00:14 54 °F /  12.2 °C 48.9 °F /  9.4 °C 29.9in /  1012.5hPa SW 0.9mph /  1.4km/h 3mph /  4.8km/h 83% 0in /  0.0mm 0 W/m2
00:19 54 °F /  12.2 °C 48.9 °F /  9.4 °C 29.9in /  1012.5hPa NW 0.9mph /  1.4km/h 1mph /  1.6km/h 83% 0in /  0.0mm 0 W/m2
00:24 53.8 °F /  12.1 °C 48.7 °F /  9.3 °C 29.9in /  1012.5hPa NW 0.9mph /  1.4km/h 1mph /  1.6km/h 83% 0in /  0.0mm 0 W/m2
00:29 53.4 °F /  11.9 °C 48.7 °F /  9.3 °C 29.9in /  1012.5hPa Calm   1mph /  1.6km/h 84% 0in /  0.0mm 0 W/m2
00:34 53.2 °F /  11.8 °C 48.6 °F /  9.2 °C 29.9in /  1012.5hPa Calm     84% 0in /  0.0mm 0 W/m2
00:39 53.1 °F /  11.7 °C 48.4 °F /  9.1 °C 29.9in /  1012.5hPa Calm   1mph /  1.6km/h 84% 0in /  0.0mm 0 W/m2
00:44 52.9 °F /  11.6 °C 48.6 °F /  9.2 °C 29.9in /  1012.5hPa Calm     85% 0in /  0.0mm 0 W/m2
00:49 52.5 °F /  11.4 °C 48.2 °F /  9 °C 29.9in /  1012.5hPa Calm     85% 0in /  0.0mm 0 W/m2
00:59 51.8 °F /  11 °C 47.7 °F /  8.7 °C 29.9in /  1012.5hPa Calm     86% 0in /  0.0mm 0 W/m2
01:04 51.4 °F /  10.8 °C 47.5 °F /  8.6 °C 29.9in /  1012.9hPa Calm     86% 0in /  0.0mm 0 W/m2
01:09 51.3 °F /  10.7 °C 47.5 °F /  8.6 °C 29.9in /  1012.9hPa Calm     87% 0in /  0.0mm 0 W/m2
01:14 51.1 °F /  10.6 °C 47.3 °F /  8.5 °C 29.9in /  1012.9hPa Calm     87% 0in /  0.0mm 0 W/m2
01:19 50.7 °F /  10.4 °C 47.3 °F /  8.5 °C 29.9in /  1012.9hPa Calm     88% 0in /  0.0mm 0 W/m2
01:24 50.5 °F /  10.3 °C 47.1 °F /  8.4 °C 29.9in /  1012.9hPa Calm     88% 0in /  0.0mm 0 W/m2
01:29 50.2 °F /  10.1 °C 46.8 °F /  8.2 °C 29.9in /  1012.9hPa Calm     88% 0in /  0.0mm 0 W/m2
01:34 50 °F /  10 °C 46.6 °F /  8.1 °C 29.9in /  1012.9hPa Calm   2mph /  3.2km/h 88% 0in /  0.0mm 0 W/m2
01:39 49.8 °F /  9.9 °C 46.8 °F /  8.2 °C 29.9in /  1012.9hPa Calm     89% 0in /  0.0mm 0 W/m2
01:44 49.6 °F /  9.8 °C 46.6 °F /  8.1 °C 29.9in /  1012.9hPa NW 0.9mph /  1.4km/h 2mph /  3.2km/h 89% 0in /  0.0mm 0 W/m2
01:49 49.5 °F /  9.7 °C 46.6 °F /  8.1 °C 29.9in /  1012.9hPa NW 0.9mph /  1.4km/h 1mph /  1.6km/h 90% 0in /  0.0mm 0 W/m2
01:54 49.5 °F /  9.7 °C 46.6 °F /  8.1 °C 29.9in /  1012.9hPa Calm     90% 0in /  0.0mm 0 W/m2
01:59 49.3 °F /  9.6 °C 46.4 °F /  8 °C 29.9in /  1012.9hPa NW 0.9mph /  1.4km/h 1mph /  1.6km/h 90% 0in /  0.0mm 0 W/m2
02:04 49.1 °F /  9.5 °C 46.2 °F /  7.9 °C 29.9in /  1012.9hPa Calm   1mph /  1.6km/h 90% 0in /  0.0mm 0 W/m2
02:09 48.9 °F /  9.4 °C 46 °F /  7.8 °C 29.9in /  1012.9hPa Calm     90% 0in /  0.0mm 0 W/m2
02:14 48.9 °F /  9.4 °C 46.4 °F /  8 °C 29.9in /  1012.9hPa Calm     91% 0in /  0.0mm 0 W/m2
02:19 48.9 °F /  9.4 °C 46.4 °F /  8 °C 29.9in /  1012.9hPa Calm     91% 0in /  0.0mm 0 W/m2
02:24 48.9 °F /  9.4 °C 46.4 °F /  8 °C 29.9in /  1012.9hPa NW 2mph /  3.2km/h 2mph /  3.2km/h 91% 0in /  0.0mm 0 W/m2
02:29 48.9 °F /  9.4 °C 46.4 °F /  8 °C 29.9in /  1012.9hPa Calm   1mph /  1.6km/h 91% 0in /  0.0mm 0 W/m2
02:34 48.9 °F /  9.4 °C 46.4 °F /  8 °C 29.9in /  1013.2hPa NW 0.9mph /  1.4km/h 2mph /  3.2km/h 91% 0in /  0.0mm 0 W/m2
02:39 49.3 °F /  9.6 °C 46.8 °F /  8.2 °C 29.9in /  1013.2hPa NW 0.9mph /  1.4km/h 2mph /  3.2km/h 91% 0in /  0.0mm 0 W/m2
02:44 49.3 °F /  9.6 °C 46.8 °F /  8.2 °C 29.9in /  1013.2hPa Calm     91% 0in /  0.0mm 0 W/m2
02:49 49.5 °F /  9.7 °C 46.9 °F /  8.3 °C 29.9in /  1013.2hPa NW 0.9mph /  1.4km/h 3mph /  4.8km/h 91% 0in /  0.0mm 0 W/m2
02:54 49.5 °F /  9.7 °C 46.9 °F /  8.3 °C 29.9in /  1013.2hPa NW 0.9mph /  1.4km/h 2mph /  3.2km/h 91% 0in /  0.0mm 0 W/m2
02:59 49.6 °F /  9.8 °C 47.1 °F /  8.4 °C 29.9in /  1013.2hPa NW 0.9mph /  1.4km/h 3mph /  4.8km/h 91% 0in /  0.0mm 0 W/m2
03:04 49.6 °F /  9.8 °C 47.1 °F /  8.4 °C 29.9in /  1013.2hPa Calm   1mph /  1.6km/h 91% 0in /  0.0mm 0 W/m2
03:09 49.6 °F /  9.8 °C 47.1 °F /  8.4 °C 29.9in /  1013.2hPa WNW 2mph /  3.2km/h 3mph /  4.8km/h 91% 0in /  0.0mm 0 W/m2
03:14 49.8 °F /  9.9 °C 47.3 °F /  8.5 °C 29.9in /  1013.2hPa Calm     91% 0in /  0.0mm 0 W/m2
03:19 49.8 °F /  9.9 °C 47.3 °F /  8.5 °C 29.9in /  1013.5hPa WNW 2mph /  3.2km/h 2mph /  3.2km/h 91% 0in /  0.0mm 0 W/m2
03:24 49.8 °F /  9.9 °C 47.3 °F /  8.5 °C 29.9in /  1013.5hPa WNW 0.9mph /  1.4km/h 2mph /  3.2km/h 91% 0in /  0.0mm 0 W/m2
03:29 49.8 °F /  9.9 °C 47.3 °F /  8.5 °C 29.9in /  1013.5hPa Calm   1mph /  1.6km/h 91% 0in /  0.0mm 0 W/m2
03:34 49.8 °F /  9.9 °C 47.3 °F /  8.5 °C 29.9in /  1013.5hPa WNW 0.9mph /  1.4km/h 1mph /  1.6km/h 91% 0in /  0.0mm 0 W/m2
03:39 49.8 °F /  9.9 °C 47.3 °F /  8.5 °C 29.9in /  1013.5hPa Calm     91% 0in /  0.0mm 0 W/m2
03:44 49.8 °F /  9.9 °C 47.3 °F /  8.5 °C 29.9in /  1013.5hPa Calm     91% 0in /  0.0mm 0 W/m2
03:49 49.6 °F /  9.8 °C 47.1 °F /  8.4 °C 29.9in /  1013.5hPa Calm     91% 0in /  0.0mm 0 W/m2
03:54 49.6 °F /  9.8 °C 47.1 °F /  8.4 °C 29.9in /  1013.5hPa Calm     91% 0in /  0.0mm 0 W/m2
03:59 49.5 °F /  9.7 °C 46.9 °F /  8.3 °C 29.9in /  1013.5hPa Calm     91% 0in /  0.0mm 0 W/m2
04:04 49.3 °F /  9.6 °C 46.8 °F /  8.2 °C 29.9in /  1013.5hPa Calm     91% 0in /  0.0mm 0 W/m2
04:09 48.9 °F /  9.4 °C 46.4 °F /  8 °C 29.9in /  1013.5hPa Calm     91% 0in /  0.0mm 0 W/m2
04:14 48.9 °F /  9.4 °C 46.4 °F /  8 °C 29.9in /  1013.5hPa Calm     91% 0in /  0.0mm 0 W/m2
04:19 48.7 °F /  9.3 °C 46.2 °F /  7.9 °C 29.9in /  1013.5hPa Calm     91% 0in /  0.0mm 0 W/m2
04:24 48.6 °F /  9.2 °C 46 °F /  7.8 °C 29.9in /  1013.5hPa Calm     91% 0in /  0.0mm 0 W/m2
04:29 48.4 °F /  9.1 °C 46.2 °F /  7.9 °C 29.9in /  1013.5hPa Calm     92% 0in /  0.0mm 0 W/m2
04:34 48.4 °F /  9.1 °C 46.2 °F /  7.9 °C 29.9in /  1013.5hPa Calm     92% 0in /  0.0mm 0 W/m2
04:39 48 °F /  8.9 °C 45.9 °F /  7.7 °C 29.9in /  1013.5hPa Calm     92% 0in /  0.0mm 0 W/m2
04:44 48 °F /  8.9 °C 45.9 °F /  7.7 °C 29.9in /  1013.5hPa Calm     92% 0in /  0.0mm 0 W/m2
04:49 47.8 °F /  8.8 °C 45.7 °F /  7.6 °C 29.9in /  1013.9hPa Calm     92% 0in /  0.0mm 0 W/m2
04:54 47.7 °F /  8.7 °C 45.5 °F /  7.5 °C 29.9in /  1013.9hPa Calm     92% 0in /  0.0mm 0 W/m2
04:59 47.7 °F /  8.7 °C 45.5 °F /  7.5 °C 29.9in /  1013.9hPa Calm     92% 0in /  0.0mm 0 W/m2
05:04 47.7 °F /  8.7 °C 45.5 °F /  7.5 °C 30in /  1014.2hPa Calm     92% 0in /  0.0mm 0 W/m2
05:09 47.5 °F /  8.6 °C 45.5 °F /  7.5 °C 30in /  1014.2hPa Calm     93% 0in /  0.0mm 0 W/m2
05:14 47.5 °F /  8.6 °C 45.5 °F /  7.5 °C 30in /  1014.2hPa Calm     93% 0in /  0.0mm 0 W/m2
05:19 47.5 °F /  8.6 °C 45.5 °F /  7.5 °C 30in /  1014.2hPa Calm     93% 0in /  0.0mm 0 W/m2
05:29 47.1 °F /  8.4 °C 45.1 °F /  7.3 °C 30in /  1014.2hPa Calm     93% 0in /  0.0mm 0 W/m2
05:34 47.1 °F /  8.4 °C 45.1 °F /  7.3 °C 30in /  1014.2hPa Calm     93% 0in /  0.0mm 0 W/m2
05:39 47.1 °F /  8.4 °C 45.1 °F /  7.3 °C 30in /  1014.2hPa Calm     93% 0in /  0.0mm 0 W/m2
05:44 46.9 °F /  8.3 °C 45 °F /  7.2 °C 30in /  1014.6hPa Calm     93% 0in /  0.0mm 5 W/m2
05:49 46.9 °F /  8.3 °C 45 °F /  7.2 °C 30in /  1014.6hPa Calm     93% 0in /  0.0mm 7 W/m2
05:54 46.8 °F /  8.2 °C 44.8 °F /  7.1 °C 30in /  1014.6hPa Calm     93% 0in /  0.0mm 9 W/m2
05:59 46.8 °F /  8.2 °C 44.8 °F /  7.1 °C 30in /  1014.6hPa Calm     93% 0in /  0.0mm 11 W/m2
06:04 46.8 °F /  8.2 °C 44.8 °F /  7.1 °C 30in /  1014.9hPa Calm     93% 0in /  0.0mm 12 W/m2
06:09 46.9 °F /  8.3 °C 45.3 °F /  7.4 °C 30in /  1014.6hPa Calm     94% 0in /  0.0mm 14 W/m2
06:14 46.9 °F /  8.3 °C 45.3 °F /  7.4 °C 30in /  1014.9hPa Calm     94% 0in /  0.0mm 16 W/m2
06:19 46.9 °F /  8.3 °C 45.3 °F /  7.4 °C 30in /  1014.6hPa Calm     94% 0in /  0.0mm 18 W/m2
06:24 46.9 °F /  8.3 °C 45.3 °F /  7.4 °C 30in /  1014.9hPa Calm     94% 0in /  0.0mm 19 W/m2
06:29 46.9 °F /  8.3 °C 45.3 °F /  7.4 °C 30in /  1014.9hPa Calm     94% 0in /  0.0mm 21 W/m2
06:34 47.1 °F /  8.4 °C 45.5 °F /  7.5 °C 30in /  1014.9hPa Calm     94% 0in /  0.0mm 23 W/m2
06:39 47.1 °F /  8.4 °C 45.5 °F /  7.5 °C 30in /  1014.9hPa Calm     94% 0in /  0.0mm 26 W/m2
06:44 47.1 °F /  8.4 °C 45.5 °F /  7.5 °C 30in /  1014.9hPa Calm     94% 0in /  0.0mm 25 W/m2
06:49 47.1 °F /  8.4 °C 45.5 °F /  7.5 °C 30in /  1015.2hPa Calm     94% 0in /  0.0mm 26 W/m2
06:54 47.5 °F /  8.6 °C 45.9 °F /  7.7 °C 30in /  1015.2hPa Calm     94% 0in /  0.0mm 25 W/m2
06:59 47.5 °F /  8.6 °C 45.9 °F /  7.7 °C 30in /  1015.2hPa Calm     94% 0in /  0.0mm 26 W/m2
07:04 47.7 °F /  8.7 °C 46 °F /  7.8 °C 30in /  1015.2hPa Calm     94% 0in /  0.0mm 28 W/m2
07:09 47.8 °F /  8.8 °C 46.2 °F /  7.9 °C 30in /  1015.2hPa Calm     94% 0in /  0.0mm 42 W/m2
07:14 48.2 °F /  9 °C 46.6 °F /  8.1 °C 30in /  1015.2hPa Calm   1mph /  1.6km/h 94% 0in /  0.0mm 128 W/m2
07:19 49.3 °F /  9.6 °C 47.8 °F /  8.8 °C 30in /  1015.2hPa WNW 0.9mph /  1.4km/h 2mph /  3.2km/h 95% 0in /  0.0mm 144 W/m2
07:24 50.4 °F /  10.2 °C 48.9 °F /  9.4 °C 30in /  1015.2hPa Calm   1mph /  1.6km/h 95% 0in /  0.0mm 156 W/m2
07:29 51.4 °F /  10.8 °C 49.5 °F /  9.7 °C 30in /  1015.2hPa Calm   3mph /  4.8km/h 93% 0in /  0.0mm 174 W/m2
07:34 53.1 °F /  11.7 °C 50.2 °F /  10.1 °C 30in /  1015.6hPa Calm   2mph /  3.2km/h 90% 0in /  0.0mm 186 W/m2
07:39 54.5 °F /  12.5 °C 50.7 °F /  10.4 °C 30in /  1015.6hPa Calm   3mph /  4.8km/h 87% 0in /  0.0mm 200 W/m2
07:44 55.6 °F /  13.1 °C 50.9 °F /  10.5 °C 30in /  1015.6hPa ENE 0.9mph /  1.4km/h 2mph /  3.2km/h 84% 0in /  0.0mm 216 W/m2
07:49 56.1 °F /  13.4 °C 50.7 °F /  10.4 °C 30in /  1015.6hPa NE 0.9mph /  1.4km/h 2mph /  3.2km/h 82% 0in /  0.0mm 230 W/m2
07:54 56.5 °F /  13.6 °C 50.4 °F /  10.2 °C 30in /  1015.6hPa Calm   1mph /  1.6km/h 80% 0in /  0.0mm 244 W/m2
07:59 56.8 °F /  13.8 °C 50.7 °F /  10.4 °C 30in /  1015.6hPa Calm     80% 0in /  0.0mm 258 W/m2
08:04 57.6 °F /  14.2 °C 50.4 °F /  10.2 °C 30in /  1015.9hPa WSW 2.9mph /  4.7km/h 4mph /  6.4km/h 77% 0in /  0.0mm 236 W/m2
08:09 57.4 °F /  14.1 °C 50.2 °F /  10.1 °C 30in /  1015.9hPa West 2mph /  3.2km/h 2mph /  3.2km/h 77% 0in /  0.0mm 128 W/m2
08:14 57 °F /  13.9 °C 49.8 °F /  9.9 °C 30in /  1015.9hPa NW 4mph /  6.4km/h 4mph /  6.4km/h 77% 0in /  0.0mm 56 W/m2
08:19 56.8 °F /  13.8 °C 50 °F /  10 °C 30in /  1015.9hPa NW 2.9mph /  4.7km/h 4mph /  6.4km/h 78% 0in /  0.0mm 44 W/m2
08:24 56.7 °F /  13.7 °C 49.5 °F /  9.7 °C 30in /  1015.9hPa NW 0.9mph /  1.4km/h 2mph /  3.2km/h 77% 0in /  0.0mm 44 W/m2
08:29 56.8 °F /  13.8 °C 49.6 °F /  9.8 °C 30in /  1015.9hPa Calm   4mph /  6.4km/h 77% 0in /  0.0mm 44 W/m2
08:34 57 °F /  13.9 °C 49.8 °F /  9.9 °C 30in /  1015.9hPa West 2mph /  3.2km/h 3mph /  4.8km/h 77% 0in /  0.0mm 42 W/m2
08:39 57.4 °F /  14.1 °C 49.5 °F /  9.7 °C 30in /  1016.3hPa WNW 2mph /  3.2km/h 5mph /  8km/h 75% 0in /  0.0mm 42 W/m2
08:44 57.6 °F /  14.2 °C 49.6 °F /  9.8 °C 30in /  1016.3hPa NW 0.9mph /  1.4km/h 3mph /  4.8km/h 75% 0in /  0.0mm 44 W/m2
08:49 57.9 °F /  14.4 °C 49.6 °F /  9.8 °C 30in /  1016.3hPa NW 2mph /  3.2km/h 4mph /  6.4km/h 74% 0in /  0.0mm 44 W/m2
08:54 57.9 °F /  14.4 °C 49.6 °F /  9.8 °C 30in /  1016.3hPa West 4mph /  6.4km/h 5mph /  8km/h 74% 0in /  0.0mm 44 W/m2
08:59 58.3 °F /  14.6 °C 50 °F /  10 °C 30in /  1016.3hPa NW 4mph /  6.4km/h 7mph /  11.3km/h 74% 0in /  0.0mm 44 W/m2
09:04 58.3 °F /  14.6 °C 49.6 °F /  9.8 °C 30in /  1016.6hPa NW 4mph /  6.4km/h 4mph /  6.4km/h 73% 0in /  0.0mm 42 W/m2
09:09 58.5 °F /  14.7 °C 49.5 °F /  9.7 °C 30in /  1016.3hPa West 2mph /  3.2km/h 7mph /  11.3km/h 72% 0in /  0.0mm 42 W/m2
09:14 58.5 °F /  14.7 °C 49.5 °F /  9.7 °C 30in /  1016.6hPa West 2mph /  3.2km/h 5mph /  8km/h 72% 0in /  0.0mm 42 W/m2
09:19 58.8 °F /  14.9 °C 49.5 °F /  9.7 °C 30in /  1016.6hPa NNW 4mph /  6.4km/h 7mph /  11.3km/h 71% 0in /  0.0mm 42 W/m2
09:24 58.6 °F /  14.8 °C 49.3 °F /  9.6 °C 30in /  1016.6hPa West 6mph /  9.7km/h 9mph /  14.5km/h 71% 0in /  0.0mm 44 W/m2
09:29 58.6 °F /  14.8 °C 49.6 °F /  9.8 °C 30in /  1016.6hPa Calm   1mph /  1.6km/h 72% 0in /  0.0mm 46 W/m2
09:34 59 °F /  15 °C 50 °F /  10 °C 30in /  1016.6hPa WNW 0.9mph /  1.4km/h 10mph /  16.1km/h 72% 0in /  0.0mm 46 W/m2
09:39 59.4 °F /  15.2 °C 50.4 °F /  10.2 °C 30in /  1016.6hPa SSW 2mph /  3.2km/h 8mph /  12.9km/h 72% 0in /  0.0mm 47 W/m2
09:44 59.5 °F /  15.3 °C 50.9 °F /  10.5 °C 30in /  1016.6hPa West 2mph /  3.2km/h 9mph /  14.5km/h 73% 0in /  0.0mm 53 W/m2
09:49 59.7 °F /  15.4 °C 50 °F /  10 °C 30in /  1016.6hPa West 4mph /  6.4km/h 8mph /  12.9km/h 70% 0in /  0.0mm 102 W/m2
09:54 59.7 °F /  15.4 °C 50 °F /  10 °C 30in /  1016.6hPa West 2mph /  3.2km/h 7mph /  11.3km/h 70% 0in /  0.0mm 93 W/m2
09:59 59.7 °F /  15.4 °C 49.5 °F /  9.7 °C 30in /  1016.6hPa NW 2mph /  3.2km/h 5mph /  8km/h 69% 0in /  0.0mm 67 W/m2
10:04 59.7 °F /  15.4 °C 50 °F /  10 °C 30in /  1016.6hPa WNW 0.9mph /  1.4km/h 7mph /  11.3km/h 70% 0in /  0.0mm 113 W/m2
10:09 60.1 °F /  15.6 °C 49.8 °F /  9.9 °C 30in /  1016.6hPa WNW 0.9mph /  1.4km/h 7mph /  11.3km/h 69% 0in /  0.0mm 104 W/m2
10:14 60.1 °F /  15.6 °C 49.8 °F /  9.9 °C 30in /  1016.6hPa WSW 2.9mph /  4.7km/h 5mph /  8km/h 69% 0in /  0.0mm 661 W/m2
10:19 60.4 °F /  15.8 °C 49.8 °F /  9.9 °C 30in /  1016.6hPa WNW 6.9mph /  11.1km/h 9mph /  14.5km/h 68% 0in /  0.0mm 663 W/m2
10:24 60.6 °F /  15.9 °C 50 °F /  10 °C 30in /  1016.6hPa SSW 0.9mph /  1.4km/h 5mph /  8km/h 68% 0in /  0.0mm 696 W/m2
10:29 60.8 °F /  16 °C 49.5 °F /  9.7 °C 30in /  1016.6hPa WNW 4mph /  6.4km/h 9mph /  14.5km/h 66% 0in /  0.0mm 728 W/m2
10:34 60.8 °F /  16 °C 49.8 °F /  9.9 °C 30in /  1016.6hPa NW 4.9mph /  7.9km/h 8mph /  12.9km/h 67% 0in /  0.0mm 742 W/m2
10:39 60.6 °F /  15.9 °C 49.6 °F /  9.8 °C 30in /  1016.6hPa West 4mph /  6.4km/h 10mph /  16.1km/h 67% 0in /  0.0mm 401 W/m2
10:44 60.8 °F /  16 °C 49.8 °F /  9.9 °C 30in /  1016.6hPa NW 2.9mph /  4.7km/h 5mph /  8km/h 67% 0in /  0.0mm 830 W/m2
10:49 61 °F /  16.1 °C 49.5 °F /  9.7 °C 30in /  1016.6hPa NW 4.9mph /  7.9km/h 10mph /  16.1km/h 66% 0in /  0.0mm 93 W/m2
10:54 60.4 °F /  15.8 °C 49.5 °F /  9.7 °C 30in /  1016.6hPa NE 0.9mph /  1.4km/h 4mph /  6.4km/h 67% 0in /  0.0mm 773 W/m2
10:59 60.8 °F /  16 °C 49.5 °F /  9.7 °C 30in /  1016.6hPa West 2mph /  3.2km/h 6mph /  9.7km/h 66% 0in /  0.0mm 877 W/m2
11:04 61.3 °F /  16.3 °C 49.1 °F /  9.5 °C 30in /  1016.6hPa NNW 2.9mph /  4.7km/h 6mph /  9.7km/h 64% 0in /  0.0mm 861 W/m2
11:09 61.3 °F /  16.3 °C 49.5 °F /  9.7 °C 30in /  1016.6hPa WSW 0.9mph /  1.4km/h 6mph /  9.7km/h 65% 0in /  0.0mm 803 W/m2
11:14 61.3 °F /  16.3 °C 48.2 °F /  9 °C 30in /  1016.6hPa SW 2mph /  3.2km/h 8mph /  12.9km/h 62% 0in /  0.0mm 823 W/m2
11:19 61.5 °F /  16.4 °C 49.3 °F /  9.6 °C 30in /  1016.6hPa Calm   3mph /  4.8km/h 64% 0in /  0.0mm 868 W/m2
11:24 62.2 °F /  16.8 °C 49.5 °F /  9.7 °C 30in /  1016.6hPa West 6.9mph /  11.1km/h 7mph /  11.3km/h 63% 0in /  0.0mm 921 W/m2
11:29 63 °F /  17.2 °C 49.8 °F /  9.9 °C 30in /  1016.6hPa NNW 2mph /  3.2km/h 6mph /  9.7km/h 62% 0in /  0.0mm 953 W/m2
11:34 62.8 °F /  17.1 °C 49.6 °F /  9.8 °C 30in /  1016.6hPa North 2.9mph /  4.7km/h 6mph /  9.7km/h 62% 0in /  0.0mm 925 W/m2
11:39 63.1 °F /  17.3 °C 49.5 °F /  9.7 °C 30in /  1016.6hPa NNE 2.9mph /  4.7km/h 5mph /  8km/h 61% 0in /  0.0mm 951 W/m2
11:44 63 °F /  17.2 °C 49.3 °F /  9.6 °C 30in /  1016.6hPa NW 2.9mph /  4.7km/h 7mph /  11.3km/h 61% 0in /  0.0mm 977 W/m2
11:49 63.1 °F /  17.3 °C 49.5 °F /  9.7 °C 30in /  1016.6hPa West 4mph /  6.4km/h 7mph /  11.3km/h 61% 0in /  0.0mm 1039 W/m2
11:54 63.3 °F /  17.4 °C 49.6 °F /  9.8 °C 30in /  1016.6hPa West 6mph /  9.7km/h 8mph /  12.9km/h 61% 0in /  0.0mm 942 W/m2
11:59 63.1 °F /  17.3 °C 49.8 °F /  9.9 °C 30in /  1016.6hPa WSW 4mph /  6.4km/h 6mph /  9.7km/h 62% 0in /  0.0mm 942 W/m2
12:04 63 °F /  17.2 °C 49.8 °F /  9.9 °C 30in /  1016.9hPa WNW 6.9mph /  11.1km/h 11mph /  17.7km/h 62% 0in /  0.0mm 1081 W/m2
12:09 62.8 °F /  17.1 °C 49.6 °F /  9.8 °C 30in /  1016.9hPa West 2.9mph /  4.7km/h 8mph /  12.9km/h 62% 0in /  0.0mm 336 W/m2
12:14 63.3 °F /  17.4 °C 50.5 °F /  10.3 °C 30in /  1016.9hPa WSW 8.1mph /  13km/h 8mph /  12.9km/h 63% 0in /  0.0mm 1034 W/m2
12:19 63.9 °F /  17.7 °C 50.5 °F /  10.3 °C 30in /  1016.9hPa NNW 4mph /  6.4km/h 8mph /  12.9km/h 62% 0in /  0.0mm 1035 W/m2
12:24 64.6 °F /  18.1 °C 50 °F /  10 °C 30in /  1016.6hPa WNW 2.9mph /  4.7km/h 4mph /  6.4km/h 59% 0in /  0.0mm 1071 W/m2
12:29 64.8 °F /  18.2 °C 50.2 °F /  10.1 °C 30in /  1016.9hPa West 8.1mph /  13km/h 13mph /  20.9km/h 59% 0in /  0.0mm 1078 W/m2
12:34 64.2 °F /  17.9 °C 50 °F /  10 °C 30in /  1016.9hPa WNW 2mph /  3.2km/h 10mph /  16.1km/h 60% 0in /  0.0mm 1079 W/m2
12:39 64.4 °F /  18 °C 49.3 °F /  9.6 °C 30in /  1016.6hPa WNW 6.9mph /  11.1km/h 13mph /  20.9km/h 58% 0in /  0.0mm 204 W/m2
12:44 64 °F /  17.8 °C 48.9 °F /  9.4 °C 30in /  1016.9hPa WNW 6.9mph /  11.1km/h 7mph /  11.3km/h 58% 0in /  0.0mm 149 W/m2
12:49 64.2 °F /  17.9 °C 48.7 °F /  9.3 °C 30in /  1016.9hPa West 8.9mph /  14.3km/h 11mph /  17.7km/h 57% 0in /  0.0mm 997 W/m2
12:54 64.2 °F /  17.9 °C 48.7 °F /  9.3 °C 30in /  1016.6hPa SW 4mph /  6.4km/h 8mph /  12.9km/h 57% 0in /  0.0mm 160 W/m2
12:59 63.7 °F /  17.6 °C 48.6 °F /  9.2 °C 30in /  1016.9hPa West 8.1mph /  13km/h 12mph /  19.3km/h 58% 0in /  0.0mm 172 W/m2
13:04 63.5 °F /  17.5 °C 48 °F /  8.9 °C 30in /  1016.9hPa West 6mph /  9.7km/h 9mph /  14.5km/h 57% 0in /  0.0mm 135 W/m2
13:09 63.9 °F /  17.7 °C 48.7 °F /  9.3 °C 30in /  1016.9hPa NW 2.9mph /  4.7km/h 12mph /  19.3km/h 58% 0in /  0.0mm 784 W/m2
13:14 63.9 °F /  17.7 °C 48.7 °F /  9.3 °C 30in /  1016.9hPa West 6.9mph /  11.1km/h 11mph /  17.7km/h 58% 0in /  0.0mm 123 W/m2
13:19 63.9 °F /  17.7 °C 48.7 °F /  9.3 °C 30in /  1016.9hPa West 6.9mph /  11.1km/h 9mph /  14.5km/h 58% 0in /  0.0mm 181 W/m2
13:24 64 °F /  17.8 °C 48.9 °F /  9.4 °C 30in /  1016.9hPa NNW 2.9mph /  4.7km/h 9mph /  14.5km/h 58% 0in /  0.0mm 981 W/m2
13:29 64.8 °F /  18.2 °C 48.7 °F /  9.3 °C 30in /  1016.9hPa NW 4.9mph /  7.9km/h 7mph /  11.3km/h 56% 0in /  0.0mm 165 W/m2
13:34 65.1 °F /  18.4 °C 48 °F /  8.9 °C 30in /  1016.9hPa NW 2mph /  3.2km/h 11mph /  17.7km/h 54% 0in /  0.0mm 965 W/m2
13:39 65.5 °F /  18.6 °C 46.9 °F /  8.3 °C 30in /  1016.9hPa NW 6mph /  9.7km/h 12mph /  19.3km/h 51% 0in /  0.0mm 225 W/m2
13:44 65.5 °F /  18.6 °C 47.5 °F /  8.6 °C 30in /  1016.9hPa West 6mph /  9.7km/h 10mph /  16.1km/h 52% 0in /  0.0mm 211 W/m2
13:49 65.5 °F /  18.6 °C 47.8 °F /  8.8 °C 30in /  1016.9hPa NW 4.9mph /  7.9km/h 13mph /  20.9km/h 53% 0in /  0.0mm 1048 W/m2
13:54 65.8 °F /  18.8 °C 48.7 °F /  9.3 °C 30in /  1016.9hPa NW 8.1mph /  13km/h 12mph /  19.3km/h 54% 0in /  0.0mm 1004 W/m2
13:59 65.5 °F /  18.6 °C 47.5 °F /  8.6 °C 30in /  1016.9hPa West 4mph /  6.4km/h 13mph /  20.9km/h 52% 0in /  0.0mm 188 W/m2
14:04 65.3 °F /  18.5 °C 48.2 °F /  9 °C 30in /  1016.9hPa WNW 2mph /  3.2km/h 12mph /  19.3km/h 54% 0in /  0.0mm 149 W/m2
14:09 65.5 °F /  18.6 °C 48.4 °F /  9.1 °C 30in /  1016.9hPa WNW 4.9mph /  7.9km/h 11mph /  17.7km/h 54% 0in /  0.0mm 1063 W/m2
14:14 65.5 °F /  18.6 °C 48.4 °F /  9.1 °C 30in /  1016.9hPa West 6mph /  9.7km/h 11mph /  17.7km/h 54% 0in /  0.0mm 160 W/m2
14:19 65.5 °F /  18.6 °C 47.8 °F /  8.8 °C 30in /  1016.9hPa SW 2.9mph /  4.7km/h 10mph /  16.1km/h 53% 0in /  0.0mm 998 W/m2
14:24 66 °F /  18.9 °C 47.8 °F /  8.8 °C 30in /  1016.9hPa West 6mph /  9.7km/h 11mph /  17.7km/h 52% 0in /  0.0mm 983 W/m2
14:29 66 °F /  18.9 °C 47.3 °F /  8.5 °C 30in /  1016.9hPa West 6.9mph /  11.1km/h 12mph /  19.3km/h 51% 0in /  0.0mm 199 W/m2
14:34 66 °F /  18.9 °C 47.8 °F /  8.8 °C 30in /  1016.9hPa WNW 4.9mph /  7.9km/h 11mph /  17.7km/h 52% 0in /  0.0mm 954 W/m2
14:39 66.4 °F /  19.1 °C 48.2 °F /  9 °C 30in /  1016.9hPa SW 8.1mph /  13km/h 12mph /  19.3km/h 52% 0in /  0.0mm 976 W/m2
14:44 66.6 °F /  19.2 °C 47.3 °F /  8.5 °C 30in /  1016.9hPa WSW 8.1mph /  13km/h 10mph /  16.1km/h 50% 0in /  0.0mm 1018 W/m2
14:49 66.9 °F /  19.4 °C 48.2 °F /  9 °C 30in /  1016.9hPa WSW 8.9mph /  14.3km/h 9mph /  14.5km/h 51% 0in /  0.0mm 993 W/m2
14:54 67.3 °F /  19.6 °C 48.6 °F /  9.2 °C 30in /  1016.9hPa West 6mph /  9.7km/h 10mph /  16.1km/h 51% 0in /  0.0mm 916 W/m2
14:59 67.3 °F /  19.6 °C 48.6 °F /  9.2 °C 30in /  1016.9hPa NNW 4.9mph /  7.9km/h 8mph /  12.9km/h 51% 0in /  0.0mm 279 W/m2
15:04 67.3 °F /  19.6 °C 48.6 °F /  9.2 °C 30in /  1016.6hPa South 2mph /  3.2km/h 10mph /  16.1km/h 51% 0in /  0.0mm 1021 W/m2
15:09 67.3 °F /  19.6 °C 48 °F /  8.9 °C 30in /  1016.9hPa WSW 2.9mph /  4.7km/h 7mph /  11.3km/h 50% 0in /  0.0mm 290 W/m2
15:14 66.9 °F /  19.4 °C 48.2 °F /  9 °C 30in /  1016.6hPa WNW 4.9mph /  7.9km/h 10mph /  16.1km/h 51% 0in /  0.0mm 214 W/m2
15:19 66.6 °F /  19.2 °C 48.4 °F /  9.1 °C 30in /  1016.9hPa NW 8.9mph /  14.3km/h 11mph /  17.7km/h 52% 0in /  0.0mm 390 W/m2
15:24 66.6 °F /  19.2 °C 49.5 °F /  9.7 °C 30in /  1016.6hPa West 6mph /  9.7km/h 10mph /  16.1km/h 54% 0in /  0.0mm 969 W/m2
15:29 66.7 °F /  19.3 °C 48.6 °F /  9.2 °C 30in /  1016.6hPa West 6.9mph /  11.1km/h 10mph /  16.1km/h 52% 0in /  0.0mm 896 W/m2
15:34 66.9 °F /  19.4 °C 48.7 °F /  9.3 °C 30in /  1016.6hPa WNW 4mph /  6.4km/h 11mph /  17.7km/h 52% 0in /  0.0mm 125 W/m2
15:39 66.7 °F /  19.3 °C 48.6 °F /  9.2 °C 30in /  1016.6hPa West 2.9mph /  4.7km/h 9mph /  14.5km/h 52% 0in /  0.0mm 977 W/m2
15:44 67.5 °F /  19.7 °C 49.3 °F /  9.6 °C 30in /  1016.6hPa WNW 2.9mph /  4.7km/h 9mph /  14.5km/h 52% 0in /  0.0mm 928 W/m2
15:49 67.8 °F /  19.9 °C 49.6 °F /  9.8 °C 30in /  1016.6hPa WSW 8.1mph /  13km/h 10mph /  16.1km/h 52% 0in /  0.0mm 499 W/m2
15:54 67.5 °F /  19.7 °C 48.2 °F /  9 °C 30in /  1016.9hPa WSW 4.9mph /  7.9km/h 10mph /  16.1km/h 50% 0in /  0.0mm 220 W/m2
15:59 67.3 °F /  19.6 °C 49.6 °F /  9.8 °C 30in /  1016.6hPa NW 2.9mph /  4.7km/h 8mph /  12.9km/h 53% 0in /  0.0mm 854 W/m2
16:04 67.6 °F /  19.8 °C 49.5 °F /  9.7 °C 30in /  1016.6hPa WNW 4mph /  6.4km/h 11mph /  17.7km/h 52% 0in /  0.0mm 214 W/m2
16:09 67.8 °F /  19.9 °C 49.1 °F /  9.5 °C 30in /  1016.6hPa NW 4mph /  6.4km/h 11mph /  17.7km/h 51% 0in /  0.0mm 842 W/m2
16:15 67.5 °F /  19.7 °C 49.3 °F /  9.6 °C 30in /  1016.6hPa West 6.9mph /  11.1km/h 9mph /  14.5km/h 52% 0in /  0.0mm 141 W/m2
16:20 66.9 °F /  19.4 °C 49.3 °F /  9.6 °C 30in /  1016.6hPa WNW 2.9mph /  4.7km/h 11mph /  17.7km/h 53% 0in /  0.0mm 188 W/m2
16:25 66.7 °F /  19.3 °C 48.6 °F /  9.2 °C 30in /  1016.9hPa WNW 4.9mph /  7.9km/h 8mph /  12.9km/h 52% 0in /  0.0mm 213 W/m2
16:30 66.9 °F /  19.4 °C 49.3 °F /  9.6 °C 30in /  1016.6hPa NW 4mph /  6.4km/h 9mph /  14.5km/h 53% 0in /  0.0mm 891 W/m2
16:35 67.6 °F /  19.8 °C 49.5 °F /  9.7 °C 30in /  1016.6hPa West 6mph /  9.7km/h 7mph /  11.3km/h 52% 0in /  0.0mm 251 W/m2
16:40 67.6 °F /  19.8 °C 48.4 °F /  9.1 °C 30in /  1016.9hPa SW 6mph /  9.7km/h 9mph /  14.5km/h 50% 0in /  0.0mm 195 W/m2
16:45 67.3 °F /  19.6 °C 48.6 °F /  9.2 °C 30in /  1016.6hPa NW 2.9mph /  4.7km/h 7mph /  11.3km/h 51% 0in /  0.0mm 761 W/m2
16:50 67.6 °F /  19.8 °C 48.9 °F /  9.4 °C 30in /  1016.6hPa WNW 4mph /  6.4km/h 11mph /  17.7km/h 51% 0in /  0.0mm 652 W/m2
16:55 68.2 °F /  20.1 °C 48.9 °F /  9.4 °C 30in /  1016.6hPa NNW 2.9mph /  4.7km/h 5mph /  8km/h 50% 0in /  0.0mm 693 W/m2
17:00 68.5 °F /  20.3 °C 48.6 °F /  9.2 °C 30in /  1016.6hPa NW 6mph /  9.7km/h 7mph /  11.3km/h 49% 0in /  0.0mm 677 W/m2
17:05 68.4 °F /  20.2 °C 48.9 °F /  9.4 °C 30in /  1016.9hPa West 2mph /  3.2km/h 5mph /  8km/h 50% 0in /  0.0mm 193 W/m2
17:10 68.2 °F /  20.1 °C 49.3 °F /  9.6 °C 30in /  1016.6hPa West 2.9mph /  4.7km/h 7mph /  11.3km/h 51% 0in /  0.0mm 680 W/m2
17:15 68.2 °F /  20.1 °C 48.9 °F /  9.4 °C 30in /  1016.9hPa WNW 2.9mph /  4.7km/h 9mph /  14.5km/h 50% 0in /  0.0mm 181 W/m2
17:20 67.6 °F /  19.8 °C 48.9 °F /  9.4 °C 30in /  1016.9hPa WNW 4.9mph /  7.9km/h 5mph /  8km/h 51% 0in /  0.0mm 257 W/m2
17:25 67.3 °F /  19.6 °C 49.6 °F /  9.8 °C 30in /  1016.6hPa WSW 4mph /  6.4km/h 9mph /  14.5km/h 53% 0in /  0.0mm 584 W/m2
17:30 67.8 °F /  19.9 °C 49.6 °F /  9.8 °C 30in /  1016.6hPa WNW 6.9mph /  11.1km/h 11mph /  17.7km/h 52% 0in /  0.0mm 578 W/m2
17:35 68.4 °F /  20.2 °C 50.5 °F /  10.3 °C 30in /  1016.9hPa NW 6.9mph /  11.1km/h 7mph /  11.3km/h 53% 0in /  0.0mm 582 W/m2
17:40 68.5 °F /  20.3 °C 49.6 °F /  9.8 °C 30in /  1016.9hPa WNW 4mph /  6.4km/h 11mph /  17.7km/h 51% 0in /  0.0mm 571 W/m2
17:45 68.5 °F /  20.3 °C 49.6 °F /  9.8 °C 30in /  1016.9hPa WSW 8.1mph /  13km/h 10mph /  16.1km/h 51% 0in /  0.0mm 526 W/m2
17:50 68.5 °F /  20.3 °C 49.6 °F /  9.8 °C 30in /  1016.9hPa WNW 6.9mph /  11.1km/h 7mph /  11.3km/h 51% 0in /  0.0mm 517 W/m2
17:55 68.5 °F /  20.3 °C 49.6 °F /  9.8 °C 30in /  1016.9hPa NW 2mph /  3.2km/h 4mph /  6.4km/h 51% 0in /  0.0mm 265 W/m2
18:00 68.2 °F /  20.1 °C 49.8 °F /  9.9 °C 30in /  1016.9hPa West 2mph /  3.2km/h 14mph /  22.5km/h 52% 0in /  0.0mm 483 W/m2
18:05 67.6 °F /  19.8 °C 49.5 °F /  9.7 °C 30in /  1016.9hPa West 6.9mph /  11.1km/h 8mph /  12.9km/h 52% 0in /  0.0mm 167 W/m2
18:10 67.5 °F /  19.7 °C 49.3 °F /  9.6 °C 30in /  1016.9hPa WSW 4mph /  6.4km/h 14mph /  22.5km/h 52% 0in /  0.0mm 487 W/m2
18:15 67.8 °F /  19.9 °C 49.6 °F /  9.8 °C 30in /  1016.9hPa Calm   7mph /  11.3km/h 52% 0in /  0.0mm 135 W/m2
18:20 67.6 °F /  19.8 °C 49.5 °F /  9.7 °C 30in /  1016.9hPa West 6mph /  9.7km/h 8mph /  12.9km/h 52% 0in /  0.0mm 504 W/m2
18:25 68 °F /  20 °C 49.3 °F /  9.6 °C 30in /  1016.9hPa West 6.9mph /  11.1km/h 15mph /  24.1km/h 51% 0in /  0.0mm 475 W/m2
18:30 67.6 °F /  19.8 °C 48.9 °F /  9.4 °C 30in /  1016.9hPa WSW 4.9mph /  7.9km/h 8mph /  12.9km/h 51% 0in /  0.0mm 95 W/m2
18:40 66.9 °F /  19.4 °C 49.3 °F /  9.6 °C 30in /  1016.9hPa WSW 8.9mph /  14.3km/h 10mph /  16.1km/h 53% 0in /  0.0mm 178 W/m2
18:45 66.7 °F /  19.3 °C 49.1 °F /  9.5 °C 30in /  1016.9hPa WNW 4mph /  6.4km/h 7mph /  11.3km/h 53% 0in /  0.0mm 86 W/m2
18:50 66.7 °F /  19.3 °C 49.6 °F /  9.8 °C 30in /  1016.9hPa WNW 0.9mph /  1.4km/h 7mph /  11.3km/h 54% 0in /  0.0mm 144 W/m2
18:55 67.5 °F /  19.7 °C 50.7 °F /  10.4 °C 30in /  1016.9hPa NW 2mph /  3.2km/h 3mph /  4.8km/h 55% 0in /  0.0mm 144 W/m2
19:00 68.2 °F /  20.1 °C 49.8 °F /  9.9 °C 30in /  1016.9hPa WSW 2mph /  3.2km/h 5mph /  8km/h 52% 0in /  0.0mm 111 W/m2
19:05 68.2 °F /  20.1 °C 47.1 °F /  8.4 °C 30in /  1016.9hPa SW 6.9mph /  11.1km/h 13mph /  20.9km/h 47% 0in /  0.0mm 91 W/m2
19:10 67.8 °F /  19.9 °C 46.9 °F /  8.3 °C 30in /  1016.9hPa NW 10.1mph /  16.3km/h 11mph /  17.7km/h 47% 0in /  0.0mm 70 W/m2
19:15 67.5 °F /  19.7 °C 46.6 °F /  8.1 °C 30in /  1017.3hPa NW 6mph /  9.7km/h 12mph /  19.3km/h 47% 0in /  0.0mm 67 W/m2
19:20 66.6 °F /  19.2 °C 46.2 °F /  7.9 °C 30in /  1017.3hPa WSW 2.9mph /  4.7km/h 7mph /  11.3km/h 48% 0in /  0.0mm 69 W/m2
19:25 66.2 °F /  19 °C 45.9 °F /  7.7 °C 30in /  1017.3hPa West 8.1mph /  13km/h 12mph /  19.3km/h 48% 0in /  0.0mm 88 W/m2
19:35 65.8 °F /  18.8 °C 46.8 °F /  8.2 °C 30in /  1017.3hPa West 2.9mph /  4.7km/h 7mph /  11.3km/h 50% 0in /  0.0mm 107 W/m2
19:40 65.8 °F /  18.8 °C 46.8 °F /  8.2 °C 30in /  1017.3hPa West 6mph /  9.7km/h 7mph /  11.3km/h 50% 0in /  0.0mm 84 W/m2
19:45 65.8 °F /  18.8 °C 46.8 °F /  8.2 °C 30in /  1017.3hPa West 6.9mph /  11.1km/h 11mph /  17.7km/h 50% 0in /  0.0mm 76 W/m2
19:50 65.7 °F /  18.7 °C 46 °F /  7.8 °C 30in /  1017.3hPa West 8.1mph /  13km/h 12mph /  19.3km/h 49% 0in /  0.0mm 69 W/m2
19:55 65.5 °F /  18.6 °C 46.4 °F /  8 °C 30.1in /  1017.6hPa West 6mph /  9.7km/h 7mph /  11.3km/h 50% 0in /  0.0mm 58 W/m2
20:00 65.5 °F /  18.6 °C 46.4 °F /  8 °C 30.1in /  1017.6hPa WNW 4mph /  6.4km/h 4mph /  6.4km/h 50% 0in /  0.0mm 56 W/m2
20:05 65.5 °F /  18.6 °C 46.4 °F /  8 °C 30.1in /  1017.6hPa West 6mph /  9.7km/h 8mph /  12.9km/h 50% 0in /  0.0mm 56 W/m2
20:10 65.3 °F /  18.5 °C 46.2 °F /  7.9 °C 30.1in /  1017.6hPa West 4mph /  6.4km/h 8mph /  12.9km/h 50% 0in /  0.0mm 53 W/m2
20:15 65.1 °F /  18.4 °C 46.6 °F /  8.1 °C 30.1in /  1017.6hPa West 4mph /  6.4km/h 6mph /  9.7km/h 51% 0in /  0.0mm 49 W/m2
20:20 65.1 °F /  18.4 °C 46 °F /  7.8 °C 30.1in /  1017.6hPa West 6mph /  9.7km/h 7mph /  11.3km/h 50% 0in /  0.0mm 39 W/m2
20:25 64.9 °F /  18.3 °C 45.9 °F /  7.7 °C 30.1in /  1017.6hPa WNW 2mph /  3.2km/h 6mph /  9.7km/h 50% 0in /  0.0mm 21 W/m2
20:30 64.9 °F /  18.3 °C 45.9 °F /  7.7 °C 30.1in /  1018.0hPa West 2.9mph /  4.7km/h 9mph /  14.5km/h 50% 0in /  0.0mm 19 W/m2
20:35 64.8 °F /  18.2 °C 45.7 °F /  7.6 °C 30.1in /  1018.0hPa NNW 4mph /  6.4km/h 9mph /  14.5km/h 50% 0in /  0.0mm 21 W/m2
20:40 64.8 °F /  18.2 °C 45.7 °F /  7.6 °C 30.1in /  1018.0hPa West 4mph /  6.4km/h 10mph /  16.1km/h 50% 0in /  0.0mm 26 W/m2
20:45 64.6 °F /  18.1 °C 46 °F /  7.8 °C 30.1in /  1018.0hPa WSW 4mph /  6.4km/h 7mph /  11.3km/h 51% 0in /  0.0mm 26 W/m2
20:50 64.4 °F /  18 °C 45.9 °F /  7.7 °C 30.1in /  1018.0hPa West 6.9mph /  11.1km/h 10mph /  16.1km/h 51% 0in /  0.0mm 28 W/m2
20:55 64.4 °F /  18 °C 46.4 °F /  8 °C 30.1in /  1018.0hPa West 2.9mph /  4.7km/h 4mph /  6.4km/h 52% 0in /  0.0mm 26 W/m2
21:00 64.2 °F /  17.9 °C 46.2 °F /  7.9 °C 30.1in /  1018.0hPa West 2.9mph /  4.7km/h 8mph /  12.9km/h 52% 0in /  0.0mm 26 W/m2
21:05 64 °F /  17.8 °C 46 °F /  7.8 °C 30.1in /  1018.0hPa SW 2.9mph /  4.7km/h 8mph /  12.9km/h 52% 0in /  0.0mm 23 W/m2
21:10 64 °F /  17.8 °C 46.6 °F /  8.1 °C 30.1in /  1018.0hPa WNW 2.9mph /  4.7km/h 5mph /  8km/h 53% 0in /  0.0mm 23 W/m2
21:15 63.9 °F /  17.7 °C 46.4 °F /  8 °C 30.1in /  1018.0hPa NW 4mph /  6.4km/h 6mph /  9.7km/h 53% 0in /  0.0mm 21 W/m2
21:20 63.9 °F /  17.7 °C 46.4 °F /  8 °C 30.1in /  1018.3hPa WNW 2mph /  3.2km/h 4mph /  6.4km/h 53% 0in /  0.0mm 14 W/m2
21:25 63.7 °F /  17.6 °C 46.8 °F /  8.2 °C 30.1in /  1018.3hPa West 2mph /  3.2km/h 5mph /  8km/h 54% 0in /  0.0mm 9 W/m2
21:30 63.7 °F /  17.6 °C 46.8 °F /  8.2 °C 30.1in /  1018.3hPa West 2mph /  3.2km/h 3mph /  4.8km/h 54% 0in /  0.0mm 0 W/m2
21:35 63.5 °F /  17.5 °C 46.6 °F /  8.1 °C 30.1in /  1018.3hPa West 2mph /  3.2km/h 6mph /  9.7km/h 54% 0in /  0.0mm 0 W/m2
21:40 63.3 °F /  17.4 °C 46.4 °F /  8 °C 30.1in /  1018.3hPa WNW 2.9mph /  4.7km/h 7mph /  11.3km/h 54% 0in /  0.0mm 0 W/m2
21:45 63.1 °F /  17.3 °C 46.2 °F /  7.9 °C 30.1in /  1018.3hPa West 4mph /  6.4km/h 8mph /  12.9km/h 54% 0in /  0.0mm 0 W/m2
21:50 63.1 °F /  17.3 °C 46.8 °F /  8.2 °C 30.1in /  1018.6hPa Calm   3mph /  4.8km/h 55% 0in /  0.0mm 0 W/m2
21:55 63 °F /  17.2 °C 46.6 °F /  8.1 °C 30.1in /  1018.6hPa NW 2mph /  3.2km/h 8mph /  12.9km/h 55% 0in /  0.0mm 0 W/m2
22:00 63 °F /  17.2 °C 46.6 °F /  8.1 °C 30.1in /  1018.6hPa West 0.9mph /  1.4km/h 7mph /  11.3km/h 55% 0in /  0.0mm 0 W/m2
22:05 62.8 °F /  17.1 °C 46.9 °F /  8.3 °C 30.1in /  1018.6hPa West 0.9mph /  1.4km/h 5mph /  8km/h 56% 0in /  0.0mm 0 W/m2
22:10 62.8 °F /  17.1 °C 46.9 °F /  8.3 °C 30.1in /  1019.0hPa WNW 4mph /  6.4km/h 7mph /  11.3km/h 56% 0in /  0.0mm 0 W/m2
22:15 62.6 °F /  17 °C 47.1 °F /  8.4 °C 30.1in /  1019.0hPa NW 2mph /  3.2km/h 2mph /  3.2km/h 57% 0in /  0.0mm 0 W/m2
22:20 62.4 °F /  16.9 °C 46.9 °F /  8.3 °C 30.1in /  1019.0hPa WNW 4mph /  6.4km/h 7mph /  11.3km/h 57% 0in /  0.0mm 0 W/m2
22:25 62.4 °F /  16.9 °C 46.9 °F /  8.3 °C 30.1in /  1019.0hPa WNW 0.9mph /  1.4km/h 3mph /  4.8km/h 57% 0in /  0.0mm 0 W/m2
22:30 62.4 °F /  16.9 °C 47.5 °F /  8.6 °C 30.1in /  1019.0hPa WNW 0.9mph /  1.4km/h 2mph /  3.2km/h 58% 0in /  0.0mm 0 W/m2
22:35 62.2 °F /  16.8 °C 47.3 °F /  8.5 °C 30.1in /  1019.0hPa West 0.9mph /  1.4km/h 2mph /  3.2km/h 58% 0in /  0.0mm 0 W/m2
22:40 62.2 °F /  16.8 °C 47.3 °F /  8.5 °C 30.1in /  1019.0hPa NW 2.9mph /  4.7km/h 8mph /  12.9km/h 58% 0in /  0.0mm 0 W/m2
22:45 62.1 °F /  16.7 °C 47.5 °F /  8.6 °C 30.1in /  1019.0hPa WNW 0.9mph /  1.4km/h 3mph /  4.8km/h 59% 0in /  0.0mm 0 W/m2
22:50 62.1 °F /  16.7 °C 47.5 °F /  8.6 °C 30.1in /  1019.0hPa NW 2mph /  3.2km/h 8mph /  12.9km/h 59% 0in /  0.0mm 0 W/m2
22:55 62.1 °F /  16.7 °C 47.5 °F /  8.6 °C 30.1in /  1019.0hPa NW 2mph /  3.2km/h 4mph /  6.4km/h 59% 0in /  0.0mm 0 W/m2
23:00 61.9 °F /  16.6 °C 47.5 °F /  8.6 °C 30.1in /  1019.0hPa West 2mph /  3.2km/h 6mph /  9.7km/h 59% 0in /  0.0mm 0 W/m2
23:06 61.7 °F /  16.5 °C 47.7 °F /  8.7 °C 30.1in /  1019.0hPa NNW 2mph /  3.2km/h 4mph /  6.4km/h 60% 0in /  0.0mm 0 W/m2
23:11 61.5 °F /  16.4 °C 47.5 °F /  8.6 °C 30.1in /  1019.3hPa Calm   6mph /  9.7km/h 60% 0in /  0.0mm 0 W/m2
23:16 61.3 °F /  16.3 °C 47.3 °F /  8.5 °C 30.1in /  1019.0hPa NW 2mph /  3.2km/h 3mph /  4.8km/h 60% 0in /  0.0mm 0 W/m2
23:21 61.3 °F /  16.3 °C 47.8 °F /  8.8 °C 30.1in /  1019.3hPa WNW 2mph /  3.2km/h 6mph /  9.7km/h 61% 0in /  0.0mm 0 W/m2
23:26 61.3 °F /  16.3 °C 47.8 °F /  8.8 °C 30.1in /  1019.3hPa West 2.9mph /  4.7km/h 5mph /  8km/h 61% 0in /  0.0mm 0 W/m2
23:31 61.2 °F /  16.2 °C 47.7 °F /  8.7 °C 30.1in /  1019.3hPa NW 2.9mph /  4.7km/h 6mph /  9.7km/h 61% 0in /  0.0mm 0 W/m2
23:36 61.2 °F /  16.2 °C 47.7 °F /  8.7 °C 30.1in /  1019.3hPa NW 2.9mph /  4.7km/h 5mph /  8km/h 61% 0in /  0.0mm 0 W/m2
23:41 61.2 °F /  16.2 °C 48 °F /  8.9 °C 30.1in /  1019.3hPa WNW 0.9mph /  1.4km/h 4mph /  6.4km/h 62% 0in /  0.0mm 0 W/m2
23:46 61.2 °F /  16.2 °C 48 °F /  8.9 °C 30.1in /  1019.3hPa NW 2.9mph /  4.7km/h 7mph /  11.3km/h 62% 0in /  0.0mm 0 W/m2
23:51 61.2 °F /  16.2 °C 48 °F /  8.9 °C 30.1in /  1019.3hPa West 2mph /  3.2km/h 6mph /  9.7km/h 62% 0in /  0.0mm 0 W/m2
23:56 61.2 °F /  16.2 °C 48 °F /  8.9 °C 30.1in /  1019.3hPa West 6mph /  9.7km/h 6mph /  9.7km/h 62% 0in /  0.0mm 0 W/m2
Juneau County Weather
Compliments of Weather Underground - 4 mb